sensor_id;sensor_type;location;lat;lon;timestamp;P1;durP1;ratioP1;P2;durP2;ratioP2
20711;SDS011;10517;50.742;4.224;2022-12-10T00:02:10;26.40;;;11.27;;
20711;SDS011;10517;50.742;4.224;2022-12-10T00:04:36;22.27;;;9.63;;
20711;SDS011;10517;50.742;4.224;2022-12-10T00:07:01;34.33;;;11.93;;
20711;SDS011;10517;50.742;4.224;2022-12-10T00:09:27;28.40;;;11.43;;
20711;SDS011;10517;50.742;4.224;2022-12-10T00:11:52;28.07;;;11.03;;
20711;SDS011;10517;50.742;4.224;2022-12-10T00:14:18;19.40;;;9.20;;
20711;SDS011;10517;50.742;4.224;2022-12-10T00:16:44;26.53;;;9.83;;
20711;SDS011;10517;50.742;4.224;2022-12-10T00:19:09;25.80;;;11.03;;
20711;SDS011;10517;50.742;4.224;2022-12-10T00:21:35;30.03;;;10.87;;
20711;SDS011;10517;50.742;4.224;2022-12-10T00:24:01;23.70;;;9.00;;
20711;SDS011;10517;50.742;4.224;2022-12-10T00:26:38;28.17;;;11.73;;
20711;SDS011;10517;50.742;4.224;2022-12-10T00:29:08;29.30;;;11.23;;
20711;SDS011;10517;50.742;4.224;2022-12-10T00:31:36;30.67;;;10.93;;
20711;SDS011;10517;50.742;4.224;2022-12-10T00:34:03;30.80;;;12.60;;
20711;SDS011;10517;50.742;4.224;2022-12-10T00:36:32;31.23;;;10.90;;
20711;SDS011;10517;50.742;4.224;2022-12-10T00:39:00;32.97;;;12.70;;
20711;SDS011;10517;50.742;4.224;2022-12-10T00:41:27;38.07;;;12.13;;
20711;SDS011;10517;50.742;4.224;2022-12-10T00:43:53;30.87;;;10.57;;
20711;SDS011;10517;50.742;4.224;2022-12-10T00:46:18;30.00;;;11.67;;
20711;SDS011;10517;50.742;4.224;2022-12-10T00:48:44;30.73;;;12.63;;
20711;SDS011;10517;50.742;4.224;2022-12-10T00:51:12;34.10;;;13.50;;
20711;SDS011;10517;50.742;4.224;2022-12-10T00:53:43;27.73;;;12.07;;
20711;SDS011;10517;50.742;4.224;2022-12-10T00:56:10;32.80;;;11.97;;
20711;SDS011;10517;50.742;4.224;2022-12-10T00:58:37;38.03;;;11.43;;
20711;SDS011;10517;50.742;4.224;2022-12-10T01:03:41;25.03;;;11.17;;
20711;SDS011;10517;50.742;4.224;2022-12-10T01:06:08;39.00;;;12.90;;
20711;SDS011;10517;50.742;4.224;2022-12-10T01:08:34;34.90;;;12.83;;
20711;SDS011;10517;50.742;4.224;2022-12-10T01:11:00;28.40;;;13.47;;
20711;SDS011;10517;50.742;4.224;2022-12-10T01:13:25;34.03;;;13.03;;
20711;SDS011;10517;50.742;4.224;2022-12-10T01:15:51;40.30;;;14.27;;
20711;SDS011;10517;50.742;4.224;2022-12-10T01:18:17;35.23;;;14.33;;
20711;SDS011;10517;50.742;4.224;2022-12-10T01:20:42;37.37;;;14.27;;
20711;SDS011;10517;50.742;4.224;2022-12-10T01:23:08;29.03;;;13.33;;
20711;SDS011;10517;50.742;4.224;2022-12-10T01:25:33;39.17;;;13.47;;
20711;SDS011;10517;50.742;4.224;2022-12-10T01:27:59;45.63;;;13.73;;
20711;SDS011;10517;50.742;4.224;2022-12-10T01:30:24;34.60;;;14.20;;
20711;SDS011;10517;50.742;4.224;2022-12-10T01:32:50;38.07;;;12.20;;
20711;SDS011;10517;50.742;4.224;2022-12-10T01:35:15;40.80;;;15.27;;
20711;SDS011;10517;50.742;4.224;2022-12-10T01:37:41;37.90;;;14.50;;
20711;SDS011;10517;50.742;4.224;2022-12-10T01:40:07;28.83;;;13.03;;
20711;SDS011;10517;50.742;4.224;2022-12-10T01:42:33;42.43;;;13.13;;
20711;SDS011;10517;50.742;4.224;2022-12-10T01:45:00;39.17;;;13.40;;
20711;SDS011;10517;50.742;4.224;2022-12-10T01:47:28;41.67;;;13.33;;
20711;SDS011;10517;50.742;4.224;2022-12-10T01:49:54;37.73;;;14.97;;
20711;SDS011;10517;50.742;4.224;2022-12-10T01:52:20;37.50;;;15.43;;
20711;SDS011;10517;50.742;4.224;2022-12-10T01:54:46;33.03;;;13.60;;
20711;SDS011;10517;50.742;4.224;2022-12-10T01:57:16;37.73;;;13.10;;
20711;SDS011;10517;50.742;4.224;2022-12-10T01:59:46;39.27;;;13.93;;
20711;SDS011;10517;50.742;4.224;2022-12-10T02:05:10;35.50;;;12.73;;
20711;SDS011;10517;50.742;4.224;2022-12-10T02:11:03;48.03;;;16.80;;
20711;SDS011;10517;50.742;4.224;2022-12-10T02:13:39;47.20;;;14.47;;
20711;SDS011;10517;50.742;4.224;2022-12-10T02:16:14;36.57;;;13.40;;
20711;SDS011;10517;50.742;4.224;2022-12-10T02:18:45;43.63;;;14.97;;
20711;SDS011;10517;50.742;4.224;2022-12-10T02:21:17;38.37;;;14.13;;
20711;SDS011;10517;50.742;4.224;2022-12-10T02:23:51;37.27;;;14.70;;
20711;SDS011;10517;50.742;4.224;2022-12-10T02:31:31;41.00;;;14.17;;
20711;SDS011;10517;50.742;4.224;2022-12-10T02:33:59;36.57;;;14.03;;
20711;SDS011;10517;50.742;4.224;2022-12-10T02:36:29;46.03;;;18.27;;
20711;SDS011;10517;50.742;4.224;2022-12-10T02:38:59;42.07;;;14.63;;
20711;SDS011;10517;50.742;4.224;2022-12-10T02:41:28;36.87;;;14.07;;
20711;SDS011;10517;50.742;4.224;2022-12-10T02:43:59;40.53;;;13.77;;
20711;SDS011;10517;50.742;4.224;2022-12-10T02:46:29;40.20;;;15.77;;
20711;SDS011;10517;50.742;4.224;2022-12-10T02:48:57;59.27;;;16.07;;
20711;SDS011;10517;50.742;4.224;2022-12-10T02:51:25;50.50;;;14.43;;
20711;SDS011;10517;50.742;4.224;2022-12-10T02:53:58;49.40;;;15.13;;
20711;SDS011;10517;50.742;4.224;2022-12-10T02:56:50;41.07;;;13.70;;
20711;SDS011;10517;50.742;4.224;2022-12-10T02:59:24;52.40;;;15.00;;
20711;SDS011;10517;50.742;4.224;2022-12-10T03:02:17;37.23;;;13.53;;
20711;SDS011;10517;50.742;4.224;2022-12-10T03:04:52;37.33;;;12.50;;
20711;SDS011;10517;50.742;4.224;2022-12-10T03:07:26;30.33;;;10.30;;
20711;SDS011;10517;50.742;4.224;2022-12-10T03:10:02;31.50;;;11.17;;
20711;SDS011;10517;50.742;4.224;2022-12-10T03:12:38;37.37;;;13.57;;
20711;SDS011;10517;50.742;4.224;2022-12-10T03:15:08;44.23;;;12.90;;
20711;SDS011;10517;50.742;4.224;2022-12-10T03:17:36;40.37;;;11.73;;
20711;SDS011;10517;50.742;4.224;2022-12-10T03:20:06;44.47;;;12.30;;
20711;SDS011;10517;50.742;4.224;2022-12-10T03:22:33;30.23;;;11.43;;
20711;SDS011;10517;50.742;4.224;2022-12-10T03:25:01;43.73;;;11.50;;
20711;SDS011;10517;50.742;4.224;2022-12-10T03:27:27;38.07;;;11.63;;
20711;SDS011;10517;50.742;4.224;2022-12-10T03:29:54;38.53;;;11.67;;
20711;SDS011;10517;50.742;4.224;2022-12-10T03:32:24;40.50;;;13.57;;
20711;SDS011;10517;50.742;4.224;2022-12-10T03:34:54;37.93;;;12.53;;
20711;SDS011;10517;50.742;4.224;2022-12-10T03:37:23;41.93;;;13.13;;
20711;SDS011;10517;50.742;4.224;2022-12-10T03:39:50;42.83;;;13.57;;
20711;SDS011;10517;50.742;4.224;2022-12-10T03:42:16;40.80;;;12.70;;
20711;SDS011;10517;50.742;4.224;2022-12-10T03:44:42;59.43;;;13.50;;
20711;SDS011;10517;50.742;4.224;2022-12-10T03:47:09;40.87;;;13.20;;
20711;SDS011;10517;50.742;4.224;2022-12-10T03:49:38;35.50;;;13.00;;
20711;SDS011;10517;50.742;4.224;2022-12-10T03:52:04;44.60;;;13.47;;
20711;SDS011;10517;50.742;4.224;2022-12-10T03:54:29;37.10;;;12.50;;
20711;SDS011;10517;50.742;4.224;2022-12-10T03:56:55;32.50;;;12.30;;
20711;SDS011;10517;50.742;4.224;2022-12-10T03:59:21;37.03;;;12.17;;
20711;SDS011;10517;50.742;4.224;2022-12-10T04:01:46;45.20;;;11.13;;
20711;SDS011;10517;50.742;4.224;2022-12-10T04:04:12;30.20;;;11.63;;
20711;SDS011;10517;50.742;4.224;2022-12-10T04:06:38;32.53;;;10.97;;
20711;SDS011;10517;50.742;4.224;2022-12-10T04:09:04;39.63;;;10.17;;
20711;SDS011;10517;50.742;4.224;2022-12-10T04:11:30;30.97;;;9.77;;
20711;SDS011;10517;50.742;4.224;2022-12-10T04:13:56;37.40;;;12.13;;
20711;SDS011;10517;50.742;4.224;2022-12-10T04:16:40;34.37;;;11.60;;
20711;SDS011;10517;50.742;4.224;2022-12-10T04:19:07;32.90;;;10.77;;
20711;SDS011;10517;50.742;4.224;2022-12-10T04:21:38;42.63;;;11.90;;
20711;SDS011;10517;50.742;4.224;2022-12-10T04:24:24;41.83;;;12.13;;
20711;SDS011;10517;50.742;4.224;2022-12-10T04:27:11;65.27;;;12.60;;
20711;SDS011;10517;50.742;4.224;2022-12-10T04:29:47;48.90;;;10.97;;
20711;SDS011;10517;50.742;4.224;2022-12-10T04:32:13;34.20;;;11.80;;
20711;SDS011;10517;50.742;4.224;2022-12-10T04:34:39;30.60;;;12.90;;
20711;SDS011;10517;50.742;4.224;2022-12-10T04:37:05;55.37;;;11.47;;
20711;SDS011;10517;50.742;4.224;2022-12-10T04:39:31;35.57;;;11.23;;
20711;SDS011;10517;50.742;4.224;2022-12-10T04:41:56;48.23;;;12.30;;
20711;SDS011;10517;50.742;4.224;2022-12-10T04:44:23;36.57;;;12.37;;
20711;SDS011;10517;50.742;4.224;2022-12-10T04:46:49;40.67;;;11.53;;
20711;SDS011;10517;50.742;4.224;2022-12-10T04:49:15;30.60;;;11.07;;
20711;SDS011;10517;50.742;4.224;2022-12-10T04:51:41;38.53;;;11.37;;
20711;SDS011;10517;50.742;4.224;2022-12-10T04:54:07;37.47;;;10.40;;
20711;SDS011;10517;50.742;4.224;2022-12-10T04:56:33;35.27;;;13.07;;
20711;SDS011;10517;50.742;4.224;2022-12-10T04:58:59;30.73;;;10.33;;
20711;SDS011;10517;50.742;4.224;2022-12-10T05:01:26;36.43;;;11.47;;
20711;SDS011;10517;50.742;4.224;2022-12-10T05:03:52;25.93;;;10.37;;
20711;SDS011;10517;50.742;4.224;2022-12-10T05:06:19;35.73;;;11.90;;
20711;SDS011;10517;50.742;4.224;2022-12-10T05:08:46;31.20;;;10.60;;
20711;SDS011;10517;50.742;4.224;2022-12-10T05:11:13;40.20;;;11.20;;
20711;SDS011;10517;50.742;4.224;2022-12-10T05:13:44;28.83;;;11.10;;
20711;SDS011;10517;50.742;4.224;2022-12-10T05:16:11;53.33;;;10.67;;
20711;SDS011;10517;50.742;4.224;2022-12-10T05:18:38;48.93;;;11.73;;
20711;SDS011;10517;50.742;4.224;2022-12-10T05:21:05;39.77;;;10.83;;
20711;SDS011;10517;50.742;4.224;2022-12-10T05:23:33;33.13;;;11.33;;
20711;SDS011;10517;50.742;4.224;2022-12-10T05:26:06;31.23;;;10.23;;
20711;SDS011;10517;50.742;4.224;2022-12-10T05:28:44;41.10;;;12.20;;
20711;SDS011;10517;50.742;4.224;2022-12-10T05:31:14;51.30;;;11.20;;
20711;SDS011;10517;50.742;4.224;2022-12-10T05:33:41;35.97;;;12.10;;
20711;SDS011;10517;50.742;4.224;2022-12-10T05:36:08;35.23;;;10.33;;
20711;SDS011;10517;50.742;4.224;2022-12-10T05:38:36;47.47;;;11.43;;
20711;SDS011;10517;50.742;4.224;2022-12-10T05:41:03;38.67;;;10.83;;
20711;SDS011;10517;50.742;4.224;2022-12-10T05:43:29;29.57;;;10.73;;
20711;SDS011;10517;50.742;4.224;2022-12-10T05:46:02;37.23;;;10.67;;
20711;SDS011;10517;50.742;4.224;2022-12-10T05:48:29;32.03;;;11.07;;
20711;SDS011;10517;50.742;4.224;2022-12-10T05:50:55;43.57;;;11.43;;
20711;SDS011;10517;50.742;4.224;2022-12-10T05:53:21;32.10;;;10.60;;
20711;SDS011;10517;50.742;4.224;2022-12-10T05:55:47;49.97;;;11.33;;
20711;SDS011;10517;50.742;4.224;2022-12-10T05:58:13;40.07;;;11.63;;
20711;SDS011;10517;50.742;4.224;2022-12-10T06:00:39;47.97;;;12.93;;
20711;SDS011;10517;50.742;4.224;2022-12-10T06:03:05;48.17;;;14.20;;
20711;SDS011;10517;50.742;4.224;2022-12-10T06:05:36;30.17;;;9.67;;
20711;SDS011;10517;50.742;4.224;2022-12-10T06:08:05;27.57;;;11.07;;
20711;SDS011;10517;50.742;4.224;2022-12-10T06:10:35;42.20;;;10.93;;
20711;SDS011;10517;50.742;4.224;2022-12-10T06:13:01;42.13;;;12.57;;
20711;SDS011;10517;50.742;4.224;2022-12-10T06:15:28;43.87;;;10.70;;
20711;SDS011;10517;50.742;4.224;2022-12-10T06:17:54;48.83;;;10.77;;
20711;SDS011;10517;50.742;4.224;2022-12-10T06:20:20;43.03;;;12.17;;
20711;SDS011;10517;50.742;4.224;2022-12-10T06:22:46;57.50;;;12.20;;
20711;SDS011;10517;50.742;4.224;2022-12-10T06:25:12;32.83;;;9.87;;
20711;SDS011;10517;50.742;4.224;2022-12-10T06:27:38;43.47;;;12.33;;
20711;SDS011;10517;50.742;4.224;2022-12-10T06:30:04;33.43;;;11.27;;
20711;SDS011;10517;50.742;4.224;2022-12-10T06:32:30;32.13;;;9.90;;
20711;SDS011;10517;50.742;4.224;2022-12-10T06:34:56;42.53;;;13.23;;
20711;SDS011;10517;50.742;4.224;2022-12-10T06:37:22;27.37;;;9.20;;
20711;SDS011;10517;50.742;4.224;2022-12-10T06:39:49;51.77;;;10.70;;
20711;SDS011;10517;50.742;4.224;2022-12-10T06:42:16;34.00;;;11.57;;
20711;SDS011;10517;50.742;4.224;2022-12-10T06:44:41;39.70;;;10.50;;
20711;SDS011;10517;50.742;4.224;2022-12-10T06:47:07;29.20;;;10.80;;
20711;SDS011;10517;50.742;4.224;2022-12-10T06:49:32;45.30;;;12.17;;
20711;SDS011;10517;50.742;4.224;2022-12-10T06:51:58;44.47;;;12.00;;
20711;SDS011;10517;50.742;4.224;2022-12-10T06:54:23;47.60;;;11.57;;
20711;SDS011;10517;50.742;4.224;2022-12-10T06:56:49;37.00;;;10.83;;
20711;SDS011;10517;50.742;4.224;2022-12-10T06:59:14;35.83;;;11.20;;
20711;SDS011;10517;50.742;4.224;2022-12-10T07:01:40;44.23;;;10.50;;
20711;SDS011;10517;50.742;4.224;2022-12-10T07:04:06;33.37;;;10.27;;
20711;SDS011;10517;50.742;4.224;2022-12-10T07:06:32;28.70;;;9.53;;
20711;SDS011;10517;50.742;4.224;2022-12-10T07:08:58;32.83;;;9.30;;
20711;SDS011;10517;50.742;4.224;2022-12-10T07:11:24;30.60;;;9.73;;
20711;SDS011;10517;50.742;4.224;2022-12-10T07:13:50;36.40;;;10.30;;
20711;SDS011;10517;50.742;4.224;2022-12-10T07:18:44;36.10;;;9.87;;
20711;SDS011;10517;50.742;4.224;2022-12-10T07:21:14;29.80;;;9.60;;
20711;SDS011;10517;50.742;4.224;2022-12-10T07:23:41;32.93;;;9.13;;
20711;SDS011;10517;50.742;4.224;2022-12-10T07:26:06;26.60;;;7.73;;
20711;SDS011;10517;50.742;4.224;2022-12-10T07:28:32;31.73;;;10.07;;
20711;SDS011;10517;50.742;4.224;2022-12-10T07:31:02;28.67;;;9.60;;
20711;SDS011;10517;50.742;4.224;2022-12-10T07:33:28;29.53;;;9.20;;
20711;SDS011;10517;50.742;4.224;2022-12-10T07:35:54;34.73;;;10.13;;
20711;SDS011;10517;50.742;4.224;2022-12-10T07:38:19;26.10;;;9.93;;
20711;SDS011;10517;50.742;4.224;2022-12-10T07:40:45;21.87;;;9.77;;
20711;SDS011;10517;50.742;4.224;2022-12-10T07:43:10;24.50;;;8.97;;
20711;SDS011;10517;50.742;4.224;2022-12-10T07:45:36;34.23;;;11.10;;
20711;SDS011;10517;50.742;4.224;2022-12-10T07:48:02;28.57;;;10.43;;
20711;SDS011;10517;50.742;4.224;2022-12-10T07:50:27;39.83;;;10.20;;
20711;SDS011;10517;50.742;4.224;2022-12-10T07:52:53;28.50;;;9.20;;
20711;SDS011;10517;50.742;4.224;2022-12-10T07:55:19;32.60;;;9.73;;
20711;SDS011;10517;50.742;4.224;2022-12-10T07:57:44;34.10;;;11.00;;
20711;SDS011;10517;50.742;4.224;2022-12-10T08:00:10;36.37;;;9.37;;
20711;SDS011;10517;50.742;4.224;2022-12-10T08:02:36;35.53;;;9.70;;
20711;SDS011;10517;50.742;4.224;2022-12-10T08:05:01;30.13;;;12.63;;
20711;SDS011;10517;50.742;4.224;2022-12-10T08:07:27;37.90;;;11.30;;
20711;SDS011;10517;50.742;4.224;2022-12-10T08:09:53;33.17;;;10.77;;
20711;SDS011;10517;50.742;4.224;2022-12-10T08:12:19;42.33;;;11.47;;
20711;SDS011;10517;50.742;4.224;2022-12-10T08:14:44;50.33;;;10.73;;
20711;SDS011;10517;50.742;4.224;2022-12-10T08:17:10;43.87;;;10.50;;
20711;SDS011;10517;50.742;4.224;2022-12-10T08:19:35;43.40;;;9.63;;
20711;SDS011;10517;50.742;4.224;2022-12-10T08:22:01;35.73;;;10.33;;
20711;SDS011;10517;50.742;4.224;2022-12-10T08:24:26;34.17;;;11.47;;
20711;SDS011;10517;50.742;4.224;2022-12-10T08:26:52;41.00;;;12.27;;
20711;SDS011;10517;50.742;4.224;2022-12-10T08:29:27;40.77;;;11.20;;
20711;SDS011;10517;50.742;4.224;2022-12-10T08:31:53;40.30;;;11.33;;
20711;SDS011;10517;50.742;4.224;2022-12-10T08:34:19;34.83;;;11.47;;
20711;SDS011;10517;50.742;4.224;2022-12-10T08:36:44;39.57;;;10.47;;
20711;SDS011;10517;50.742;4.224;2022-12-10T08:39:10;40.80;;;11.20;;
20711;SDS011;10517;50.742;4.224;2022-12-10T08:41:40;31.63;;;10.10;;
20711;SDS011;10517;50.742;4.224;2022-12-10T08:44:06;26.53;;;10.17;;
20711;SDS011;10517;50.742;4.224;2022-12-10T08:46:32;40.27;;;11.23;;
20711;SDS011;10517;50.742;4.224;2022-12-10T08:48:58;34.50;;;9.47;;
20711;SDS011;10517;50.742;4.224;2022-12-10T08:51:24;36.07;;;12.10;;
20711;SDS011;10517;50.742;4.224;2022-12-10T08:53:49;40.07;;;11.17;;
20711;SDS011;10517;50.742;4.224;2022-12-10T08:56:15;24.80;;;8.47;;
20711;SDS011;10517;50.742;4.224;2022-12-10T08:58:41;32.53;;;11.17;;
20711;SDS011;10517;50.742;4.224;2022-12-10T09:01:08;30.60;;;8.73;;
20711;SDS011;10517;50.742;4.224;2022-12-10T09:03:35;30.27;;;9.63;;
20711;SDS011;10517;50.742;4.224;2022-12-10T09:06:03;32.07;;;10.10;;
20711;SDS011;10517;50.742;4.224;2022-12-10T09:08:33;37.17;;;10.63;;
20711;SDS011;10517;50.742;4.224;2022-12-10T09:11:06;26.23;;;9.63;;
20711;SDS011;10517;50.742;4.224;2022-12-10T09:13:52;35.27;;;11.60;;
20711;SDS011;10517;50.742;4.224;2022-12-10T09:16:18;45.53;;;10.53;;
20711;SDS011;10517;50.742;4.224;2022-12-10T09:18:44;38.77;;;11.50;;
20711;SDS011;10517;50.742;4.224;2022-12-10T09:21:12;36.30;;;9.17;;
20711;SDS011;10517;50.742;4.224;2022-12-10T09:23:39;44.37;;;9.73;;
20711;SDS011;10517;50.742;4.224;2022-12-10T09:26:06;37.07;;;10.90;;
20711;SDS011;10517;50.742;4.224;2022-12-10T09:28:36;43.27;;;10.77;;
20711;SDS011;10517;50.742;4.224;2022-12-10T09:31:03;40.50;;;11.77;;
20711;SDS011;10517;50.742;4.224;2022-12-10T09:33:30;28.63;;;10.67;;
20711;SDS011;10517;50.742;4.224;2022-12-10T09:35:59;33.40;;;10.73;;
20711;SDS011;10517;50.742;4.224;2022-12-10T09:38:24;47.00;;;12.13;;
20711;SDS011;10517;50.742;4.224;2022-12-10T09:40:54;48.03;;;11.10;;
20711;SDS011;10517;50.742;4.224;2022-12-10T09:43:24;37.30;;;10.63;;
20711;SDS011;10517;50.742;4.224;2022-12-10T09:46:06;45.47;;;10.57;;
20711;SDS011;10517;50.742;4.224;2022-12-10T09:51:33;38.23;;;9.43;;
20711;SDS011;10517;50.742;4.224;2022-12-10T09:54:01;50.47;;;12.27;;
20711;SDS011;10517;50.742;4.224;2022-12-10T09:56:34;46.87;;;12.10;;
20711;SDS011;10517;50.742;4.224;2022-12-10T09:59:11;40.33;;;10.70;;
20711;SDS011;10517;50.742;4.224;2022-12-10T10:01:44;19.70;;;5.23;;
20711;SDS011;10517;50.742;4.224;2022-12-10T10:04:10;38.13;;;13.73;;
20711;SDS011;10517;50.742;4.224;2022-12-10T10:06:36;43.20;;;11.20;;
20711;SDS011;10517;50.742;4.224;2022-12-10T10:09:02;24.27;;;8.70;;
20711;SDS011;10517;50.742;4.224;2022-12-10T10:11:31;34.17;;;10.70;;
20711;SDS011;10517;50.742;4.224;2022-12-10T10:13:59;33.27;;;11.23;;
20711;SDS011;10517;50.742;4.224;2022-12-10T10:16:35;37.57;;;9.73;;
20711;SDS011;10517;50.742;4.224;2022-12-10T10:19:17;42.93;;;10.70;;
20711;SDS011;10517;50.742;4.224;2022-12-10T10:21:46;49.00;;;11.83;;
20711;SDS011;10517;50.742;4.224;2022-12-10T10:24:15;48.73;;;10.23;;
20711;SDS011;10517;50.742;4.224;2022-12-10T10:26:43;26.60;;;8.37;;
20711;SDS011;10517;50.742;4.224;2022-12-10T10:29:11;26.40;;;8.43;;
20711;SDS011;10517;50.742;4.224;2022-12-10T10:31:39;43.90;;;12.27;;
20711;SDS011;10517;50.742;4.224;2022-12-10T10:34:13;39.20;;;9.13;;
20711;SDS011;10517;50.742;4.224;2022-12-10T10:36:46;35.70;;;9.63;;
20711;SDS011;10517;50.742;4.224;2022-12-10T10:41:41;41.70;;;11.43;;
20711;SDS011;10517;50.742;4.224;2022-12-10T10:44:15;32.70;;;10.40;;
20711;SDS011;10517;50.742;4.224;2022-12-10T10:46:42;33.53;;;8.13;;
20711;SDS011;10517;50.742;4.224;2022-12-10T10:51:48;29.93;;;9.70;;
20711;SDS011;10517;50.742;4.224;2022-12-10T10:56:57;26.97;;;9.07;;
20711;SDS011;10517;50.742;4.224;2022-12-10T10:59:29;37.20;;;9.70;;
20711;SDS011;10517;50.742;4.224;2022-12-10T11:02:42;30.57;;;9.53;;
20711;SDS011;10517;50.742;4.224;2022-12-10T11:04:51;38.53;;;9.03;;
20711;SDS011;10517;50.742;4.224;2022-12-10T11:07:32;34.27;;;10.57;;
20711;SDS011;10517;50.742;4.224;2022-12-10T11:10:00;28.10;;;8.53;;
20711;SDS011;10517;50.742;4.224;2022-12-10T11:12:35;34.33;;;10.53;;
20711;SDS011;10517;50.742;4.224;2022-12-10T11:15:24;33.13;;;10.33;;
20711;SDS011;10517;50.742;4.224;2022-12-10T11:17:49;34.10;;;9.00;;
20711;SDS011;10517;50.742;4.224;2022-12-10T11:20:23;33.73;;;8.63;;
20711;SDS011;10517;50.742;4.224;2022-12-10T11:22:51;33.77;;;8.97;;
20711;SDS011;10517;50.742;4.224;2022-12-10T11:25:35;35.47;;;10.63;;
20711;SDS011;10517;50.742;4.224;2022-12-10T11:34:18;23.93;;;7.10;;
20711;SDS011;10517;50.742;4.224;2022-12-10T11:45:32;35.40;;;9.57;;
20711;SDS011;10517;50.742;4.224;2022-12-10T11:48:18;26.30;;;8.37;;
20711;SDS011;10517;50.742;4.224;2022-12-10T11:50:58;27.87;;;8.17;;
20711;SDS011;10517;50.742;4.224;2022-12-10T11:53:35;24.50;;;6.90;;
20711;SDS011;10517;50.742;4.224;2022-12-10T11:56:21;29.77;;;7.70;;
20711;SDS011;10517;50.742;4.224;2022-12-10T12:01:50;31.83;;;8.43;;
20711;SDS011;10517;50.742;4.224;2022-12-10T12:15:08;27.07;;;9.20;;
20711;SDS011;10517;50.742;4.224;2022-12-10T12:17:43;19.83;;;7.00;;
20711;SDS011;10517;50.742;4.224;2022-12-10T12:21:10;22.67;;;6.60;;
20711;SDS011;10517;50.742;4.224;2022-12-10T12:23:31;26.50;;;7.03;;
20711;SDS011;10517;50.742;4.224;2022-12-10T12:26:10;30.83;;;8.23;;
20711;SDS011;10517;50.742;4.224;2022-12-10T12:29:00;26.67;;;8.90;;
20711;SDS011;10517;50.742;4.224;2022-12-10T12:31:59;24.97;;;6.80;;
20711;SDS011;10517;50.742;4.224;2022-12-10T12:37:18;34.93;;;8.43;;
20711;SDS011;10517;50.742;4.224;2022-12-10T12:42:29;26.80;;;6.97;;
20711;SDS011;10517;50.742;4.224;2022-12-10T12:45:08;22.07;;;7.87;;
20711;SDS011;10517;50.742;4.224;2022-12-10T12:47:41;28.17;;;8.70;;
20711;SDS011;10517;50.742;4.224;2022-12-10T12:52:53;27.90;;;8.13;;
20711;SDS011;10517;50.742;4.224;2022-12-10T12:57:54;24.50;;;7.43;;
20711;SDS011;10517;50.742;4.224;2022-12-10T13:00:42;25.30;;;9.20;;
20711;SDS011;10517;50.742;4.224;2022-12-10T13:05:55;36.23;;;9.90;;
20711;SDS011;10517;50.742;4.224;2022-12-10T13:08:41;34.23;;;8.53;;
20711;SDS011;10517;50.742;4.224;2022-12-10T13:13:38;21.67;;;8.27;;
20711;SDS011;10517;50.742;4.224;2022-12-10T13:29:56;26.23;;;8.07;;
20711;SDS011;10517;50.742;4.224;2022-12-10T13:42:55;21.67;;;7.73;;
20711;SDS011;10517;50.742;4.224;2022-12-10T13:45:42;24.23;;;7.77;;
20711;SDS011;10517;50.742;4.224;2022-12-10T13:50:46;26.40;;;9.83;;
20711;SDS011;10517;50.742;4.224;2022-12-10T13:53:29;20.90;;;7.70;;
20711;SDS011;10517;50.742;4.224;2022-12-10T14:01:46;22.00;;;7.30;;
20711;SDS011;10517;50.742;4.224;2022-12-10T14:07:04;19.93;;;6.63;;
20711;SDS011;10517;50.742;4.224;2022-12-10T14:09:36;18.00;;;7.40;;
20711;SDS011;10517;50.742;4.224;2022-12-10T14:12:16;26.93;;;6.67;;
20711;SDS011;10517;50.742;4.224;2022-12-10T14:17:46;31.37;;;8.63;;
20711;SDS011;10517;50.742;4.224;2022-12-10T14:20:15;23.87;;;8.23;;
20711;SDS011;10517;50.742;4.224;2022-12-10T14:22:45;24.97;;;7.23;;
20711;SDS011;10517;50.742;4.224;2022-12-10T14:25:16;24.03;;;7.77;;
20711;SDS011;10517;50.742;4.224;2022-12-10T14:27:48;29.07;;;9.50;;
20711;SDS011;10517;50.742;4.224;2022-12-10T14:30:16;26.00;;;7.77;;
20711;SDS011;10517;50.742;4.224;2022-12-10T14:32:45;21.73;;;8.00;;
20711;SDS011;10517;50.742;4.224;2022-12-10T14:35:19;26.50;;;7.93;;
20711;SDS011;10517;50.742;4.224;2022-12-10T14:37:47;24.87;;;8.30;;
20711;SDS011;10517;50.742;4.224;2022-12-10T14:40:18;25.40;;;9.37;;
20711;SDS011;10517;50.742;4.224;2022-12-10T14:42:54;17.73;;;7.07;;
20711;SDS011;10517;50.742;4.224;2022-12-10T14:45:32;22.57;;;7.33;;
20711;SDS011;10517;50.742;4.224;2022-12-10T14:48:11;28.47;;;7.17;;
20711;SDS011;10517;50.742;4.224;2022-12-10T14:50:38;25.40;;;7.63;;
20711;SDS011;10517;50.742;4.224;2022-12-10T14:53:05;27.10;;;8.00;;
20711;SDS011;10517;50.742;4.224;2022-12-10T14:55:36;18.57;;;7.63;;
20711;SDS011;10517;50.742;4.224;2022-12-10T14:58:02;21.80;;;8.37;;
20711;SDS011;10517;50.742;4.224;2022-12-10T15:00:30;24.27;;;6.97;;
20711;SDS011;10517;50.742;4.224;2022-12-10T15:02:58;29.43;;;8.87;;
20711;SDS011;10517;50.742;4.224;2022-12-10T15:05:27;34.13;;;7.93;;
20711;SDS011;10517;50.742;4.224;2022-12-10T15:08:00;26.13;;;8.17;;
20711;SDS011;10517;50.742;4.224;2022-12-10T15:10:32;17.17;;;6.67;;
20711;SDS011;10517;50.742;4.224;2022-12-10T15:12:59;25.40;;;8.50;;
20711;SDS011;10517;50.742;4.224;2022-12-10T15:15:28;30.40;;;9.03;;
20711;SDS011;10517;50.742;4.224;2022-12-10T15:18:02;22.40;;;8.77;;
20711;SDS011;10517;50.742;4.224;2022-12-10T15:28:26;22.50;;;7.13;;
20711;SDS011;10517;50.742;4.224;2022-12-10T15:36:33;22.33;;;7.80;;
20711;SDS011;10517;50.742;4.224;2022-12-10T15:39:04;23.10;;;8.53;;
20711;SDS011;10517;50.742;4.224;2022-12-10T15:46:57;20.90;;;7.87;;
20711;SDS011;10517;50.742;4.224;2022-12-10T15:49:23;26.73;;;6.70;;
20711;SDS011;10517;50.742;4.224;2022-12-10T15:51:49;20.93;;;6.93;;
20711;SDS011;10517;50.742;4.224;2022-12-10T15:56:49;25.67;;;9.23;;
20711;SDS011;10517;50.742;4.224;2022-12-10T15:59:15;27.93;;;9.40;;
20711;SDS011;10517;50.742;4.224;2022-12-10T16:01:40;26.57;;;9.07;;
20711;SDS011;10517;50.742;4.224;2022-12-10T16:04:06;23.00;;;8.47;;
20711;SDS011;10517;50.742;4.224;2022-12-10T16:06:32;34.50;;;9.10;;
20711;SDS011;10517;50.742;4.224;2022-12-10T16:08:57;25.23;;;9.10;;
20711;SDS011;10517;50.742;4.224;2022-12-10T16:11:23;28.20;;;8.67;;
20711;SDS011;10517;50.742;4.224;2022-12-10T16:13:50;21.73;;;8.57;;
20711;SDS011;10517;50.742;4.224;2022-12-10T16:16:18;24.67;;;8.53;;
20711;SDS011;10517;50.742;4.224;2022-12-10T16:18:44;27.50;;;8.43;;
20711;SDS011;10517;50.742;4.224;2022-12-10T16:21:09;20.23;;;8.47;;
20711;SDS011;10517;50.742;4.224;2022-12-10T16:23:35;25.90;;;8.13;;
20711;SDS011;10517;50.742;4.224;2022-12-10T16:26:02;23.03;;;8.10;;
20711;SDS011;10517;50.742;4.224;2022-12-10T16:28:33;30.20;;;8.30;;
20711;SDS011;10517;50.742;4.224;2022-12-10T16:30:59;29.33;;;9.23;;
20711;SDS011;10517;50.742;4.224;2022-12-10T16:33:26;15.80;;;7.23;;
20711;SDS011;10517;50.742;4.224;2022-12-10T16:35:53;20.70;;;7.80;;
20711;SDS011;10517;50.742;4.224;2022-12-10T16:38:20;21.17;;;7.63;;
20711;SDS011;10517;50.742;4.224;2022-12-10T16:40:46;28.53;;;9.67;;
20711;SDS011;10517;50.742;4.224;2022-12-10T16:43:20;25.17;;;7.27;;
20711;SDS011;10517;50.742;4.224;2022-12-10T16:45:47;23.30;;;8.10;;
20711;SDS011;10517;50.742;4.224;2022-12-10T16:48:14;26.60;;;8.40;;
20711;SDS011;10517;50.742;4.224;2022-12-10T16:50:40;16.67;;;7.97;;